KBIL

Billings Logan International Airport

Billings, Montana, USA
METAR KBIL 242353Z 18007KT 10SM CLR 12/M03 A3038 RMK AO2 SLP298 T01221028 10128 20083 56020
Observed Flight Rules
Apr-24 @ 23:53 UTC (54 minutes ago) Visual Flight Rules
Wind Visibility Clouds
180° at 7 knots 10 miles
  • Clear skies
Temperatures Readings
Current 12°C / 54°F
Dewpoint -3°C / 27°F
Humidity 35%
Altimeter 30.38" Hg
Pressure 1029.8 hPa
Elevation 1091
METAR KBIL 242353Z 18007KT 10SM CLR 12/M03 A3038 RMK AO2 SLP298 T01221028 10128 20083 56020
Observed Flight Rules
Apr-24 @ 23:53 UTC
(54 minutes ago)
VFR
Wind Visibility
180° at 7 knots 10 miles
Clouds
  • Clear skies
Temperature Dewpoint
12°C / 54°F -3°C / 27°F
Humidity Altimeter Pressure
35% 30.38" Hg 1029.8 hPa